Conroy, IA

9:46 AM CDT on September 21, 2014 (GMT -0500)
Williamsburg South | Change Station
CLOSE
Current Station
Personal Weather Station
Location: Williamsburg, IA
Elevation: 879 ft
Nearby Weather Stations

Elev 879 ft 41.62 °N, 92.05 °W | Updated 11 seconds ago

Clear
Clear
62.1 °F
Feels Like 62.1 °F
N
21.2
Wind Variable Wind from NNW
Gusts 21.7 mph

Today
High -- | Low -- °F
--% Chance of Precip.
Yesterday
High -- | Low -- °F
Precip. -- in
6:54 AM 7:06 PM
Waning Crescent, 6% visible
Pressure 30.00 in
Visibility 10.0 miles
Clouds Clear
Dew Point 52 °F
Humidity 69%
Rainfall 0.00 in
Snow Depth Not available.
UV 2 out of 12
Pollen 4.90 out of 12
Air Quality Not available.
Flu Activity Not available.
METAR KCID 211352Z 31017KT 10SM CLR 14/10 A3000

More Conditions Fewer Conditions

Pressure 30.00 in
Visibility 10.0 miles
Clouds Clear
Dew Point 52 °F
Humidity 69%
Rainfall 0.00 in
Snow Depth Not available.
UV 2 out of 12
Pollen 4.90 out of 12
Air Quality Not available.
Flu Activity Not available.
METAR KCID 211352Z 31017KT 10SM CLR 14/10 A3000

More Conditions Fewer Conditions

10-Day Weather Forecast

Almanac

Astronomy

Sep. 21, 2014 Rise Set
Actual Time 6:54 AM CDT 7:06 PM CDT
Civil Twilight 6:26 AM CDT 7:34 PM CDT
Nautical Twilight 5:53 AM CDT 8:07 PM CDT
Astronomical Twilight 5:20 AM CDT 8:40 PM CDT
Moon 4:26 AM CDT 5:44 PM CDT
Length of Visible Light 13h 08m
Length of Day
12h 12m
Tomorrow will be 2m 46s shorter.
Waning Crescent, 6% of the Moon is Illuminated
Today
Waning Crescent
Sep 24
New
Oct 1
First Quarter
Oct 8
Full
Oct 15
Last Quarter

Today's Extremes

State Highs State Lows

Community

WunderPhotos

Upload Photos

1,755,167 photos uploaded!

Nearby

Snow Depth

Station Depth Elevation
No new snow has been reported.

Earthquake Activity

City Distance Mag. Time & Date
No recent earthquake activity has been reported nearby.
Minimum magnitude displayed is 2.5.

Coastal Water Temperatures

Place Temperature
No Stations Reporting

Nearby Weather Stations